createdAt,value
2019-05-09T00:00:23.325Z,79.97
2019-05-09T00:01:23.552Z,80.63
2019-05-09T00:02:24.179Z,80.09
2019-05-09T00:03:21.523Z,79.54
2019-05-09T00:04:23.090Z,79.05
2019-05-09T00:05:23.291Z,79.12
2019-05-09T00:06:23.775Z,79.45
2019-05-09T00:07:23.323Z,79.78
2019-05-09T00:08:23.092Z,79.38
2019-05-09T00:09:23.185Z,79.08
2019-05-09T00:10:37.544Z,80.01
2019-05-09T00:11:21.649Z,79.60
2019-05-09T00:12:23.404Z,79.31
2019-05-09T00:13:23.776Z,79.59
2019-05-09T00:14:23.767Z,79.55
2019-05-09T00:15:21.611Z,79.97
2019-05-09T00:16:23.466Z,80.23
2019-05-09T00:17:23.247Z,81.09
2019-05-09T00:18:23.307Z,80.22
2019-05-09T00:19:23.701Z,80.59
2019-05-09T00:20:23.812Z,80.04
2019-05-09T00:21:23.790Z,79.58
2019-05-09T00:22:23.899Z,79.31
2019-05-09T00:23:23.845Z,79.44
2019-05-09T00:24:23.800Z,79.32
2019-05-09T00:25:23.543Z,78.43
2019-05-09T00:26:23.554Z,77.78
2019-05-09T00:27:23.153Z,77.58
2019-05-09T00:28:23.568Z,77.99
2019-05-09T00:29:21.805Z,77.92
2019-05-09T00:30:23.168Z,77.78
2019-05-09T00:31:23.791Z,78.39
2019-05-09T00:32:23.790Z,78.46
2019-05-09T00:33:23.539Z,77.77
2019-05-09T00:34:23.411Z,78.07
2019-05-09T00:35:23.377Z,78.70
2019-05-09T00:36:23.238Z,78.55
2019-05-09T00:37:23.808Z,79.12
2019-05-09T00:38:23.833Z,78.73
2019-05-09T00:39:23.608Z,79.66
2019-05-09T00:40:23.706Z,79.98
2019-05-09T00:41:23.772Z,78.63
2019-05-09T00:42:23.983Z,78.31
2019-05-09T00:43:23.681Z,78.86
2019-05-09T00:44:23.243Z,79.04
2019-05-09T00:45:23.782Z,78.90
2019-05-09T00:46:23.637Z,79.62
2019-05-09T00:47:23.853Z,79.87
2019-05-09T00:48:23.072Z,78.86
2019-05-09T00:49:23.555Z,78.38
2019-05-09T00:50:23.539Z,78.92
2019-05-09T00:51:23.293Z,77.81
2019-05-09T00:52:23.466Z,78.45
2019-05-09T00:53:23.219Z,77.54
2019-05-09T00:54:23.916Z,77.95
2019-05-09T00:55:23.744Z,77.41
2019-05-09T00:56:23.751Z,77.74
2019-05-09T00:57:23.025Z,78.52
2019-05-09T00:58:24.047Z,78.68
2019-05-09T00:59:23.985Z,77.43
2019-05-09T01:00:24.109Z,77.78
2019-05-09T01:01:23.739Z,78.04
2019-05-09T01:02:23.543Z,77.57
2019-05-09T01:03:23.420Z,77.94
2019-05-09T01:04:23.962Z,77.97
2019-05-09T01:05:23.774Z,77.71
2019-05-09T01:06:23.782Z,78.16
2019-05-09T01:07:23.256Z,77.67
2019-05-09T01:08:24.065Z,79.08
2019-05-09T01:09:21.468Z,77.85
2019-05-09T01:10:23.532Z,77.86
2019-05-09T01:11:23.973Z,78.18
2019-05-09T01:12:23.528Z,77.94
2019-05-09T01:13:23.187Z,77.85
2019-05-09T01:14:23.435Z,78.41
2019-05-09T01:15:23.821Z,78.41
2019-05-09T01:16:23.906Z,78.39
2019-05-09T01:17:23.924Z,78.65
2019-05-09T01:18:23.636Z,78.95
2019-05-09T01:19:23.296Z,76.75
2019-05-09T01:20:24.015Z,77.61
2019-05-09T01:21:23.792Z,77.67
2019-05-09T01:22:23.585Z,77.55
2019-05-09T01:23:23.375Z,77.75
2019-05-09T01:24:23.270Z,78.73
2019-05-09T01:25:21.489Z,77.82
2019-05-09T01:26:23.896Z,78.53
2019-05-09T01:27:23.340Z,78.54
2019-05-09T01:28:23.238Z,78.76
2019-05-09T01:29:23.038Z,79.13
2019-05-09T01:30:23.913Z,79.01
2019-05-09T01:31:23.777Z,78.80
2019-05-09T01:32:23.708Z,79.20
2019-05-09T01:33:21.683Z,79.66
2019-05-09T01:34:23.792Z,79.80
2019-05-09T01:35:23.300Z,79.32
2019-05-09T01:36:23.483Z,80.00
2019-05-09T01:37:23.731Z,79.50
2019-05-09T01:38:23.205Z,79.86
2019-05-09T01:39:21.595Z,80.13
2019-05-09T01:40:23.874Z,79.88
2019-05-09T01:41:29.802Z,80.47
2019-05-09T01:42:23.314Z,80.95
2019-05-09T01:43:21.624Z,80.74
2019-05-09T01:44:23.823Z,80.42
2019-05-09T01:45:23.552Z,80.68
2019-05-09T01:46:23.580Z,80.01
2019-05-09T01:47:23.524Z,79.95
2019-05-09T01:48:23.429Z,79.31
2019-05-09T01:49:23.244Z,79.67
2019-05-09T01:50:23.344Z,79.68
2019-05-09T01:51:23.334Z,79.29
2019-05-09T01:52:23.143Z,80.00
2019-05-09T01:53:23.808Z,79.76
2019-05-09T01:54:23.630Z,80.95
2019-05-09T01:55:23.419Z,80.79
2019-05-09T01:56:23.484Z,79.71
2019-05-09T01:57:23.226Z,79.31
2019-05-09T01:58:23.272Z,79.37
2019-05-09T01:59:21.642Z,79.51
2019-05-09T02:00:23.760Z,80.19
2019-05-09T02:01:23.977Z,80.16
2019-05-09T02:02:23.519Z,79.74
2019-05-09T02:03:23.346Z,79.08
2019-05-09T02:04:24.072Z,79.43
2019-05-09T02:05:23.945Z,79.29
2019-05-09T02:06:24.118Z,78.71
2019-05-09T02:07:23.661Z,78.79
2019-05-09T02:08:23.618Z,78.65
2019-05-09T02:09:23.464Z,78.68
2019-05-09T02:10:23.242Z,78.96
2019-05-09T02:11:23.631Z,79.49
2019-05-09T02:12:21.867Z,78.40
2019-05-09T02:13:23.133Z,78.62
2019-05-09T02:14:23.875Z,79.28
2019-05-09T02:15:23.602Z,78.83
2019-05-09T02:16:23.457Z,78.94
2019-05-09T02:17:23.239Z,79.15
2019-05-09T02:18:23.082Z,79.62
2019-05-09T02:19:23.991Z,79.90
2019-05-09T02:20:24.053Z,79.87
2019-05-09T02:21:23.837Z,80.84
2019-05-09T02:22:23.574Z,80.78
2019-05-09T02:23:23.327Z,80.95
2019-05-09T02:24:23.437Z,81.16
2019-05-09T02:25:24.067Z,81.77
2019-05-09T02:26:23.867Z,81.33
2019-05-09T02:27:23.738Z,82.22
2019-05-09T02:28:23.478Z,81.54
2019-05-09T02:29:23.184Z,80.76
2019-05-09T02:30:25.086Z,80.05
2019-05-09T02:31:24.323Z,79.29
2019-05-09T02:32:23.999Z,79.42
2019-05-09T02:33:24.822Z,79.01
2019-05-09T02:34:24.530Z,78.70
2019-05-09T02:35:21.747Z,78.42
2019-05-09T02:36:21.837Z,79.80
2019-05-09T02:37:21.799Z,79.28
2019-05-09T02:38:21.740Z,79.36
2019-05-09T02:39:21.689Z,79.45
2019-05-09T02:40:21.726Z,79.05
2019-05-09T02:41:21.608Z,79.42
2019-05-09T02:42:21.740Z,79.42
2019-05-09T02:43:21.640Z,79.71
2019-05-09T02:44:21.821Z,80.18
2019-05-09T02:45:21.624Z,80.62
2019-05-09T02:46:21.782Z,80.48
2019-05-09T02:47:21.888Z,80.54
2019-05-09T02:48:21.715Z,80.32
2019-05-09T02:49:21.654Z,80.04
2019-05-09T02:50:21.786Z,80.18
2019-05-09T02:51:21.784Z,80.75
2019-05-09T02:52:21.933Z,80.54
2019-05-09T02:53:21.698Z,80.59
2019-05-09T02:54:21.660Z,80.86
2019-05-09T02:55:21.694Z,80.90
2019-05-09T02:56:21.690Z,80.97
2019-05-09T02:57:29.079Z,80.36
2019-05-09T02:58:21.800Z,79.55
2019-05-09T02:59:21.732Z,79.84
2019-05-09T03:00:21.747Z,79.36
2019-05-09T03:01:21.758Z,79.54
2019-05-09T03:02:21.756Z,80.36
2019-05-09T03:03:21.687Z,80.56
2019-05-09T03:04:21.733Z,80.42
2019-05-09T03:05:21.800Z,79.54
2019-05-09T03:06:21.889Z,79.23
2019-05-09T03:07:21.737Z,79.33
2019-05-09T03:08:21.920Z,80.05
2019-05-09T03:09:21.685Z,80.42
2019-05-09T03:10:21.749Z,79.12
2019-05-09T03:11:21.665Z,79.34
2019-05-09T03:12:30.835Z,79.76
2019-05-09T03:13:21.647Z,77.97
2019-05-09T03:14:21.755Z,78.03
2019-05-09T03:15:21.599Z,77.96
2019-05-09T03:16:21.765Z,78.16
2019-05-09T03:17:21.696Z,79.38
2019-05-09T03:18:21.783Z,78.40
2019-05-09T03:19:21.858Z,79.24
2019-05-09T03:20:21.860Z,78.59
2019-05-09T03:21:21.713Z,78.04
2019-05-09T03:22:21.697Z,77.49
2019-05-09T03:23:21.701Z,77.72
2019-05-09T03:24:21.782Z,77.70
2019-05-09T03:25:21.717Z,79.02
2019-05-09T03:26:21.735Z,78.51
2019-05-09T03:27:21.757Z,78.96
2019-05-09T03:28:21.746Z,79.21
2019-05-09T03:29:21.613Z,78.82
2019-05-09T03:30:21.842Z,78.97
2019-05-09T03:31:21.766Z,78.68
2019-05-09T03:32:21.856Z,78.31
2019-05-09T03:33:21.779Z,78.59
2019-05-09T03:34:21.768Z,78.46
2019-05-09T03:35:21.707Z,79.16
2019-05-09T03:36:21.766Z,78.74
2019-05-09T03:37:21.841Z,78.34
2019-05-09T03:38:21.688Z,78.71
2019-05-09T03:39:21.748Z,78.90
2019-05-09T03:40:21.737Z,79.17
2019-05-09T03:41:21.951Z,78.74
2019-05-09T03:42:36.489Z,79.16
2019-05-09T03:43:21.756Z,79.80
2019-05-09T03:44:21.757Z,80.32
2019-05-09T03:45:21.768Z,80.28
2019-05-09T03:46:21.759Z,80.39
2019-05-09T03:47:21.798Z,81.05
2019-05-09T03:48:21.722Z,81.56
2019-05-09T03:49:21.817Z,81.76
2019-05-09T03:50:21.806Z,81.63
2019-05-09T03:51:21.830Z,81.90
2019-05-09T03:52:21.952Z,82.29
2019-05-09T03:53:21.765Z,82.32
2019-05-09T03:54:21.701Z,82.70
2019-05-09T03:55:21.660Z,81.87
2019-05-09T03:56:21.735Z,82.03
2019-05-09T03:57:21.775Z,82.41
2019-05-09T03:58:21.774Z,82.02
2019-05-09T03:59:21.802Z,81.34
2019-05-09T04:00:21.728Z,81.03
2019-05-09T04:01:21.775Z,81.34
2019-05-09T04:02:21.812Z,81.11
2019-05-09T04:03:21.892Z,81.59
2019-05-09T04:04:21.820Z,82.61
2019-05-09T04:05:21.816Z,83.12
2019-05-09T04:06:21.675Z,83.40
2019-05-09T04:07:21.777Z,83.79
2019-05-09T04:08:21.716Z,83.55
2019-05-09T04:09:21.833Z,83.62
2019-05-09T04:10:21.826Z,83.08
2019-05-09T04:11:21.719Z,83.38
2019-05-09T04:12:21.763Z,83.72
2019-05-09T04:13:21.906Z,83.99
2019-05-09T04:14:21.895Z,84.01
2019-05-09T04:15:21.799Z,83.42
2019-05-09T04:16:21.720Z,84.08
2019-05-09T04:17:21.848Z,84.38
2019-05-09T04:18:21.785Z,83.51
2019-05-09T04:19:21.769Z,84.02
2019-05-09T04:20:21.711Z,83.73
2019-05-09T04:21:21.754Z,84.18
2019-05-09T04:22:21.794Z,84.25
2019-05-09T04:23:21.832Z,84.31
2019-05-09T04:24:21.768Z,83.75
2019-05-09T04:25:21.867Z,84.39
2019-05-09T04:26:21.906Z,84.08
2019-05-09T04:27:21.804Z,83.75
2019-05-09T04:28:21.816Z,84.20
2019-05-09T04:29:21.813Z,83.83
2019-05-09T04:30:21.794Z,83.21
2019-05-09T04:31:21.823Z,82.56
2019-05-09T04:32:21.895Z,82.42
2019-05-09T04:33:21.671Z,82.68
2019-05-09T04:34:21.817Z,81.80
2019-05-09T04:35:21.717Z,81.33
2019-05-09T04:36:21.971Z,80.28
2019-05-09T04:37:21.871Z,79.45
2019-05-09T04:38:21.770Z,79.91
2019-05-09T04:39:23.695Z,78.87
2019-05-09T04:40:21.793Z,79.30
2019-05-09T04:41:23.994Z,79.29
2019-05-09T04:42:21.811Z,79.38
2019-05-09T04:43:27.183Z,79.65
2019-05-09T04:44:21.970Z,74.81
2019-05-09T04:45:21.830Z,75.54
2019-05-09T05:02:32.286Z,77.97
2019-05-09T05:03:29.018Z,77.57
2019-05-09T05:04:29.179Z,77.76
2019-05-09T05:05:29.019Z,77.96
2019-05-09T05:06:28.979Z,78.19
2019-05-09T05:07:29.020Z,78.17
2019-05-09T05:08:29.138Z,78.13
2019-05-09T05:09:28.940Z,77.98
2019-05-09T05:10:29.004Z,78.32
2019-05-09T05:11:28.971Z,77.99
2019-05-09T05:12:29.293Z,78.51
2019-05-09T05:13:29.693Z,78.73
2019-05-09T05:14:29.122Z,79.13
2019-05-09T05:15:29.125Z,79.29
2019-05-09T05:16:29.036Z,80.14
2019-05-09T05:17:30.765Z,80.05
2019-05-09T05:18:29.055Z,79.34
2019-05-09T05:19:31.403Z,79.70
2019-05-09T05:20:29.115Z,79.98
2019-05-09T05:21:29.626Z,79.91
2019-05-09T05:22:29.126Z,79.98
2019-05-09T05:23:29.309Z,79.41
2019-05-09T05:24:28.969Z,78.33
2019-05-09T05:25:29.202Z,78.41
2019-05-09T05:26:28.979Z,79.07
2019-05-09T05:27:29.219Z,78.88
2019-05-09T05:28:29.110Z,79.46
2019-05-09T05:29:29.080Z,78.77
2019-05-09T05:30:29.008Z,79.45
2019-05-09T05:31:29.241Z,79.19
2019-05-09T05:32:29.025Z,79.02
2019-05-09T05:33:29.216Z,79.13
2019-05-09T05:34:29.110Z,79.26
2019-05-09T05:35:29.097Z,79.89
2019-05-09T05:36:29.081Z,80.04
2019-05-09T05:37:29.098Z,80.00
2019-05-09T05:38:29.335Z,80.91
2019-05-09T05:39:29.076Z,80.88
2019-05-09T05:40:33.336Z,80.47
2019-05-09T05:41:29.085Z,79.74
2019-05-09T05:42:29.222Z,78.83
2019-05-09T05:43:43.308Z,79.41
2019-05-09T05:44:29.314Z,78.81
2019-05-09T05:45:29.119Z,77.74
2019-05-09T05:46:29.232Z,77.18
2019-05-09T05:47:29.433Z,77.75
2019-05-09T05:48:29.742Z,76.50
2019-05-09T05:49:29.224Z,76.28
2019-05-09T05:50:29.212Z,77.04
2019-05-09T05:51:29.181Z,78.91
2019-05-09T05:52:29.113Z,78.62
2019-05-09T05:53:28.955Z,78.08
2019-05-09T05:54:29.155Z,77.67
2019-05-09T05:55:29.586Z,77.08
2019-05-09T05:56:29.142Z,78.92
2019-05-09T05:57:29.275Z,78.40
2019-05-09T05:58:29.162Z,77.58
2019-05-09T05:59:29.196Z,77.56
2019-05-09T06:00:29.035Z,77.87
2019-05-09T06:01:29.134Z,77.86
2019-05-09T06:02:29.149Z,77.61
2019-05-09T06:03:30.146Z,77.58
2019-05-09T06:04:29.222Z,77.48
2019-05-09T06:05:30.126Z,78.24
2019-05-09T06:06:29.294Z,77.96
2019-05-09T06:07:29.116Z,77.96
2019-05-09T06:08:29.091Z,78.72
2019-05-09T06:09:29.168Z,79.40
2019-05-09T06:10:29.201Z,79.23
2019-05-09T06:11:29.111Z,78.63
2019-05-09T06:12:29.221Z,79.20
2019-05-09T06:13:29.025Z,78.55
2019-05-09T06:14:29.431Z,79.61
2019-05-09T06:15:29.183Z,78.71
2019-05-09T06:16:29.094Z,78.97
2019-05-09T06:17:29.258Z,79.60
2019-05-09T06:18:29.052Z,79.72
2019-05-09T06:19:29.202Z,79.22
2019-05-09T06:20:29.161Z,78.08
2019-05-09T06:21:29.221Z,76.68
2019-05-09T06:22:29.173Z,77.35
2019-05-09T06:23:29.110Z,77.08
2019-05-09T06:24:29.311Z,77.45
2019-05-09T06:25:30.541Z,77.11
2019-05-09T06:26:29.496Z,76.94
2019-05-09T06:27:30.170Z,76.55
2019-05-09T06:28:29.399Z,76.60
2019-05-09T06:29:29.153Z,76.61
2019-05-09T06:30:29.293Z,76.24
2019-05-09T06:31:29.318Z,76.02
2019-05-09T06:32:29.094Z,76.16
2019-05-09T06:33:29.177Z,76.66
2019-05-09T06:34:29.667Z,76.55
2019-05-09T06:35:29.225Z,77.04
2019-05-09T06:36:29.093Z,76.05
2019-05-09T06:37:29.211Z,76.93
2019-05-09T06:38:29.142Z,77.58
2019-05-09T06:39:29.472Z,76.33
2019-05-09T06:40:29.146Z,75.99
2019-05-09T06:41:29.245Z,75.66
2019-05-09T06:42:29.600Z,76.72
2019-05-09T06:43:29.359Z,76.07
2019-05-09T06:44:29.195Z,76.48
2019-05-09T06:45:29.255Z,76.61
2019-05-09T06:46:29.165Z,76.33
2019-05-09T06:47:29.324Z,75.98
2019-05-09T06:48:29.089Z,76.50
2019-05-09T06:49:31.883Z,75.33
2019-05-09T06:50:29.196Z,74.91
2019-05-09T06:51:29.240Z,74.56
2019-05-09T06:52:29.113Z,74.23
2019-05-09T06:53:29.231Z,74.39
2019-05-09T06:54:29.157Z,74.71
2019-05-09T06:55:29.744Z,74.17
2019-05-09T06:56:29.117Z,74.92
2019-05-09T06:57:29.164Z,74.85
2019-05-09T06:58:29.161Z,74.46
2019-05-09T06:59:29.202Z,75.54
2019-05-09T07:00:29.298Z,72.68
2019-05-09T07:01:29.264Z,73.01
2019-05-09T07:02:29.137Z,73.12
2019-05-09T07:03:29.180Z,73.44
2019-05-09T07:04:29.252Z,72.32
2019-05-09T07:05:29.300Z,72.90
2019-05-09T07:06:29.203Z,72.59
2019-05-09T07:07:29.218Z,71.76
2019-05-09T07:08:31.405Z,73.25
2019-05-09T07:09:29.327Z,72.17
2019-05-09T07:10:29.150Z,70.50
2019-05-09T07:11:29.276Z,70.45
2019-05-09T07:12:29.348Z,69.43
2019-05-09T07:13:29.777Z,68.79
2019-05-09T07:14:32.641Z,68.83
2019-05-09T07:15:29.203Z,68.14
2019-05-09T07:16:29.194Z,68.94
2019-05-09T07:17:31.930Z,68.76
2019-05-09T07:18:29.202Z,66.90
2019-05-09T07:19:29.288Z,66.39
2019-05-09T07:20:29.192Z,66.56
2019-05-09T07:21:29.305Z,67.55
2019-05-09T07:22:29.364Z,67.03
2019-05-09T07:23:29.414Z,67.33
2019-05-09T07:24:29.226Z,67.07
2019-05-09T07:25:29.650Z,67.43
2019-05-09T07:26:29.139Z,67.57
2019-05-09T07:27:29.151Z,67.19
2019-05-09T07:28:29.165Z,67.84
2019-05-09T07:29:29.294Z,67.28
2019-05-09T07:30:29.214Z,66.61
2019-05-09T07:31:29.343Z,67.58
2019-05-09T07:32:29.273Z,68.17
2019-05-09T07:33:29.263Z,68.97
2019-05-09T07:34:29.403Z,68.28
2019-05-09T07:35:29.148Z,69.04
2019-05-09T07:36:29.203Z,68.32
2019-05-09T07:37:29.301Z,68.30
2019-05-09T07:38:29.283Z,71.01
2019-05-09T07:39:29.272Z,70.31
2019-05-09T07:40:30.703Z,68.73
2019-05-09T07:41:29.187Z,67.62
2019-05-09T07:42:29.230Z,70.50
2019-05-09T07:43:31.448Z,70.10
2019-05-09T07:44:44.232Z,67.97
2019-05-09T07:45:29.292Z,67.27
2019-05-09T07:46:29.142Z,67.63
2019-05-09T07:47:29.389Z,68.04
2019-05-09T07:48:29.237Z,67.72
2019-05-09T07:49:29.306Z,67.70
2019-05-09T07:50:29.292Z,68.03
2019-05-09T07:51:29.262Z,68.16
2019-05-09T07:52:29.228Z,68.45
2019-05-09T07:53:30.103Z,68.14
2019-05-09T07:54:31.528Z,68.19
2019-05-09T07:55:29.306Z,68.24
2019-05-09T07:56:29.284Z,68.34
2019-05-09T07:57:29.297Z,70.75
2019-05-09T07:58:29.205Z,68.89
2019-05-09T07:59:29.530Z,71.11
2019-05-09T08:00:29.216Z,70.33
2019-05-09T08:01:29.288Z,71.19
2019-05-09T08:02:29.269Z,69.95
2019-05-09T08:03:29.309Z,69.60
2019-05-09T08:04:29.387Z,70.58
2019-05-09T08:05:29.388Z,69.01
2019-05-09T08:06:29.425Z,72.38
2019-05-09T08:07:29.390Z,71.72
2019-05-09T08:08:29.313Z,71.39
2019-05-09T08:09:29.367Z,68.62
2019-05-09T08:10:32.928Z,70.54
2019-05-09T08:11:32.210Z,66.96
2019-05-09T08:12:29.213Z,69.07
2019-05-09T08:13:29.255Z,69.39
2019-05-09T08:14:29.399Z,70.20
2019-05-09T08:15:29.228Z,70.05
2019-05-09T08:16:29.225Z,71.03
2019-05-09T08:17:29.294Z,67.42
2019-05-09T08:18:29.504Z,67.76
2019-05-09T08:19:29.230Z,69.42
2019-05-09T08:20:29.383Z,66.51
2019-05-09T08:21:29.305Z,66.48
2019-05-09T08:22:32.251Z,65.69
2019-05-09T08:23:29.449Z,66.14
2019-05-09T08:24:29.540Z,67.11
2019-05-09T08:25:29.593Z,68.20
2019-05-09T08:26:29.975Z,65.35
2019-05-09T08:27:30.374Z,65.84
2019-05-09T08:28:29.309Z,67.13
2019-05-09T08:29:29.387Z,68.49
2019-05-09T08:30:35.493Z,67.18
2019-05-09T08:31:29.301Z,64.78
2019-05-09T08:32:29.311Z,67.72
2019-05-09T08:33:29.419Z,65.59
2019-05-09T08:34:29.320Z,65.43
2019-05-09T08:35:29.293Z,64.80
2019-05-09T08:36:29.369Z,65.24
2019-05-09T08:37:29.416Z,66.35
2019-05-09T08:38:29.522Z,66.17
2019-05-09T08:39:29.379Z,65.79
2019-05-09T08:40:29.312Z,65.35
2019-05-09T08:41:29.534Z,65.95
2019-05-09T08:42:29.438Z,64.14
2019-05-09T08:43:29.307Z,65.74
2019-05-09T08:44:31.149Z,64.61
2019-05-09T08:45:31.438Z,63.48
2019-05-09T08:46:29.508Z,62.83
2019-05-09T08:47:29.337Z,61.77
2019-05-09T08:48:29.261Z,61.69
2019-05-09T08:49:29.306Z,62.55
2019-05-09T08:50:29.458Z,62.87
2019-05-09T08:51:36.818Z,61.89
2019-05-09T08:52:29.253Z,61.66
2019-05-09T08:53:29.428Z,62.10
2019-05-09T08:54:29.293Z,62.44
2019-05-09T08:55:29.493Z,63.05
2019-05-09T08:56:29.406Z,63.36
2019-05-09T08:57:29.614Z,59.10
2019-05-09T08:58:29.325Z,59.75
2019-05-09T08:59:29.401Z,58.13
2019-05-09T09:00:29.245Z,61.08
2019-05-09T09:01:47.863Z,59.94
2019-05-09T09:02:29.382Z,59.66
2019-05-09T09:03:29.270Z,59.36
2019-05-09T09:04:29.513Z,58.31
2019-05-09T09:05:29.266Z,57.30
2019-05-09T09:06:29.412Z,57.27
2019-05-09T09:07:29.878Z,57.60
2019-05-09T09:08:29.341Z,57.49
2019-05-09T09:09:29.369Z,56.03
2019-05-09T09:10:29.330Z,58.97
2019-05-09T09:11:29.493Z,59.35
2019-05-09T09:12:34.212Z,58.73
2019-05-09T09:13:29.690Z,58.62
2019-05-09T09:14:29.449Z,59.92
2019-05-09T09:15:55.894Z,59.51
2019-05-09T09:16:29.351Z,59.76
2019-05-09T09:17:29.529Z,57.10
2019-05-09T09:18:29.460Z,57.74
2019-05-09T09:19:29.389Z,58.08
2019-05-09T09:20:29.302Z,57.67
2019-05-09T09:21:29.380Z,56.92
2019-05-09T09:22:29.382Z,55.74
2019-05-09T09:23:42.803Z,55.45
2019-05-09T09:24:29.495Z,55.29
2019-05-09T09:25:29.248Z,55.62
2019-05-09T09:26:29.836Z,56.40
2019-05-09T09:27:29.397Z,56.05
2019-05-09T09:28:29.392Z,56.84
2019-05-09T09:29:29.505Z,56.73
2019-05-09T09:30:29.648Z,56.17
2019-05-09T09:31:29.336Z,56.62
2019-05-09T09:32:29.411Z,57.13
2019-05-09T09:33:29.311Z,57.71
2019-05-09T09:34:30.042Z,57.36
2019-05-09T09:35:29.436Z,57.55
2019-05-09T09:36:29.226Z,58.77
2019-05-09T09:37:44.716Z,58.01
2019-05-09T09:38:29.421Z,58.12
2019-05-09T09:39:31.252Z,57.37
2019-05-09T09:40:29.651Z,57.26
2019-05-09T09:41:29.409Z,57.18
2019-05-09T09:42:29.433Z,56.67
2019-05-09T09:43:29.408Z,56.70
2019-05-09T09:44:29.487Z,56.38
2019-05-09T09:45:29.553Z,57.06
2019-05-09T09:46:29.685Z,55.24
2019-05-09T09:47:29.323Z,56.09
2019-05-09T09:48:29.638Z,57.07
2019-05-09T09:49:29.661Z,56.73
2019-05-09T09:50:29.350Z,55.99
2019-05-09T09:51:29.468Z,54.23
2019-05-09T09:52:32.107Z,55.06
2019-05-09T09:53:29.400Z,54.64
2019-05-09T09:54:29.397Z,55.86
2019-05-09T09:55:29.499Z,55.30
2019-05-09T09:56:29.507Z,55.27
2019-05-09T09:57:29.970Z,55.38
2019-05-09T09:58:29.459Z,54.75
2019-05-09T09:59:29.474Z,54.20
2019-05-09T10:00:29.414Z,56.71
2019-05-09T10:01:29.574Z,54.23
2019-05-09T10:02:29.333Z,52.77
2019-05-09T10:03:29.353Z,52.54
2019-05-09T10:04:29.720Z,53.06
2019-05-09T10:05:29.345Z,54.19
2019-05-09T10:06:29.431Z,52.89
2019-05-09T10:07:29.368Z,53.71
2019-05-09T10:08:29.492Z,53.65
2019-05-09T10:09:29.625Z,53.38
2019-05-09T10:10:29.397Z,53.63
2019-05-09T10:11:29.555Z,53.43
2019-05-09T10:12:29.577Z,53.96
2019-05-09T10:13:29.406Z,52.66
2019-05-09T10:14:29.497Z,51.73
2019-05-09T10:15:29.444Z,52.68
2019-05-09T10:16:32.709Z,53.05
2019-05-09T10:17:29.595Z,52.73
2019-05-09T10:18:29.420Z,50.44
2019-05-09T10:19:29.731Z,51.19
2019-05-09T10:20:29.396Z,50.25
2019-05-09T10:21:29.426Z,50.33
2019-05-09T10:22:29.418Z,50.14
2019-05-09T10:23:29.596Z,48.81
2019-05-09T10:24:29.499Z,49.30
2019-05-09T10:25:29.413Z,50.35
2019-05-09T10:26:29.442Z,50.55
2019-05-09T10:27:29.410Z,49.22
2019-05-09T10:28:30.200Z,48.53
2019-05-09T10:29:29.633Z,47.86
2019-05-09T10:30:31.930Z,48.26
2019-05-09T10:31:29.373Z,49.69
2019-05-09T10:32:29.484Z,49.32
2019-05-09T10:33:29.466Z,48.73
2019-05-09T10:34:29.563Z,49.75
2019-05-09T10:35:29.391Z,49.48
2019-05-09T10:36:29.439Z,47.80
2019-05-09T10:37:29.500Z,48.93
2019-05-09T10:38:29.444Z,48.55
2019-05-09T10:39:29.469Z,49.15
2019-05-09T10:40:29.488Z,47.92
2019-05-09T10:41:29.541Z,49.94
2019-05-09T10:42:29.329Z,49.18
2019-05-09T10:43:35.587Z,49.25
2019-05-09T10:44:29.520Z,48.44
2019-05-09T10:45:29.451Z,49.57
2019-05-09T10:46:47.561Z,49.51
2019-05-09T10:47:29.461Z,48.33
2019-05-09T10:48:29.524Z,49.33
2019-05-09T10:49:29.580Z,48.76
2019-05-09T10:50:34.178Z,49.19
2019-05-09T10:51:29.551Z,49.64
2019-05-09T10:52:29.513Z,48.40
2019-05-09T10:53:31.510Z,48.30
2019-05-09T10:54:29.487Z,47.82
2019-05-09T10:55:29.599Z,47.41
2019-05-09T10:56:29.714Z,47.20
2019-05-09T10:57:31.472Z,47.19
2019-05-09T10:58:29.570Z,47.59
2019-05-09T10:59:29.668Z,47.23
2019-05-09T11:00:29.479Z,46.22
2019-05-09T11:01:29.773Z,46.54
2019-05-09T11:02:29.495Z,47.85
2019-05-09T11:03:29.675Z,47.02
2019-05-09T11:04:29.548Z,47.62
2019-05-09T11:05:29.590Z,46.99
2019-05-09T11:06:29.588Z,46.12
2019-05-09T11:07:29.440Z,46.43
2019-05-09T11:08:30.778Z,46.19
2019-05-09T11:09:29.550Z,46.26
2019-05-09T11:10:32.558Z,46.49
2019-05-09T11:11:29.627Z,46.15
2019-05-09T11:12:29.512Z,46.20
2019-05-09T11:13:29.599Z,45.92
2019-05-09T11:14:36.926Z,46.05
2019-05-09T11:15:29.533Z,45.90
2019-05-09T11:16:41.957Z,45.80
2019-05-09T11:17:29.589Z,45.42
2019-05-09T11:18:29.486Z,46.25
2019-05-09T11:19:30.109Z,46.06
2019-05-09T11:20:29.682Z,46.50
2019-05-09T11:21:29.570Z,47.24
2019-05-09T11:22:29.509Z,47.38
2019-05-09T11:23:29.525Z,48.00
2019-05-09T11:24:41.077Z,49.29
2019-05-09T11:25:29.638Z,49.72
2019-05-09T11:26:29.485Z,50.39
2019-05-09T11:27:29.518Z,52.19
2019-05-09T11:28:29.500Z,55.72
2019-05-09T11:29:29.603Z,56.31
2019-05-09T11:30:29.507Z,54.59
2019-05-09T11:31:29.825Z,56.11
2019-05-09T11:32:29.682Z,55.16
2019-05-09T11:33:29.803Z,54.26
2019-05-09T11:34:29.612Z,55.11
2019-05-09T11:35:29.573Z,53.45
2019-05-09T11:36:29.698Z,53.78
2019-05-09T11:37:29.462Z,53.41
2019-05-09T11:38:36.089Z,52.59
2019-05-09T11:39:36.555Z,52.81
2019-05-09T11:40:29.471Z,51.60
2019-05-09T11:41:30.247Z,52.15
2019-05-09T11:42:33.287Z,52.22
2019-05-09T11:43:29.859Z,51.99
2019-05-09T11:44:29.623Z,50.54
2019-05-09T11:45:29.513Z,49.74
2019-05-09T11:46:29.524Z,50.15
2019-05-09T11:47:38.137Z,48.58
2019-05-09T11:48:29.611Z,50.56
2019-05-09T11:49:29.678Z,48.62
2019-05-09T11:50:29.976Z,49.56
2019-05-09T11:51:29.601Z,48.97
2019-05-09T11:52:30.527Z,48.73
2019-05-09T11:53:29.582Z,49.22
2019-05-09T11:54:29.637Z,47.89
2019-05-09T11:55:35.637Z,48.16
2019-05-09T11:56:29.524Z,47.46
2019-05-09T11:57:31.577Z,47.29
2019-05-09T11:58:29.623Z,47.96
2019-05-09T11:59:29.615Z,47.85
2019-05-09T12:00:30.153Z,46.20
2019-05-09T12:01:29.558Z,46.90
2019-05-09T12:02:29.823Z,47.01
2019-05-09T12:03:30.600Z,47.62
2019-05-09T12:04:29.644Z,47.90
2019-05-09T12:05:29.579Z,48.55
2019-05-09T12:06:29.559Z,48.24
2019-05-09T12:07:29.880Z,49.22
2019-05-09T12:08:29.609Z,49.27
2019-05-09T12:09:29.680Z,48.76
2019-05-09T12:10:29.637Z,48.41
2019-05-09T12:11:29.663Z,48.27
2019-05-09T12:12:29.654Z,48.94
2019-05-09T12:13:29.511Z,47.47
2019-05-09T12:14:29.622Z,48.93
2019-05-09T12:15:29.555Z,49.35
2019-05-09T12:16:29.699Z,49.79
2019-05-09T12:17:48.226Z,50.14
2019-05-09T12:18:29.590Z,49.58
2019-05-09T12:19:29.734Z,49.30
2019-05-09T12:20:30.954Z,48.24
2019-05-09T12:21:29.484Z,49.55
2019-05-09T12:22:29.586Z,48.73
2019-05-09T12:23:29.627Z,49.38
2019-05-09T12:24:29.773Z,47.95
2019-05-09T12:25:29.675Z,49.24
2019-05-09T12:26:29.663Z,49.45
2019-05-09T12:27:29.843Z,48.08
2019-05-09T12:28:29.573Z,48.51
2019-05-09T12:29:29.737Z,48.45
2019-05-09T12:30:29.652Z,47.37
2019-05-09T12:31:30.380Z,47.11
2019-05-09T12:32:29.681Z,48.56
2019-05-09T12:33:33.103Z,47.85
2019-05-09T12:34:29.794Z,48.69
2019-05-09T12:35:29.694Z,48.50
2019-05-09T12:36:29.755Z,49.55
2019-05-09T12:37:29.805Z,50.12
2019-05-09T12:38:29.635Z,49.54
2019-05-09T12:39:29.848Z,50.66
2019-05-09T12:40:29.751Z,50.46
2019-05-09T12:41:31.501Z,50.35
2019-05-09T12:42:29.927Z,50.06
2019-05-09T12:43:29.668Z,51.96
2019-05-09T12:44:30.935Z,50.90
2019-05-09T12:45:29.735Z,49.77
2019-05-09T12:46:29.689Z,50.32
2019-05-09T12:47:29.735Z,47.93
2019-05-09T12:48:29.731Z,48.67
2019-05-09T12:49:29.726Z,49.90
2019-05-09T12:50:29.885Z,49.37
2019-05-09T12:51:29.743Z,49.51
2019-05-09T12:52:29.758Z,49.03
2019-05-09T12:53:29.812Z,47.72
2019-05-09T12:54:29.683Z,47.54
2019-05-09T12:55:29.650Z,49.28
2019-05-09T12:56:29.706Z,50.78
2019-05-09T12:57:29.717Z,50.48
2019-05-09T12:58:29.797Z,50.53
2019-05-09T12:59:44.557Z,49.87
2019-05-09T13:00:29.831Z,50.16
2019-05-09T13:01:29.871Z,50.11
2019-05-09T13:02:29.856Z,48.96
2019-05-09T13:03:29.851Z,50.23
2019-05-09T13:04:30.061Z,48.40
2019-05-09T13:05:29.675Z,49.80
2019-05-09T13:06:29.968Z,49.80
2019-05-09T13:07:29.949Z,49.46
2019-05-09T13:08:29.683Z,48.59